Terminal Aerodrome Forecast
Issued by NWS Milwaukee/Sullivan, WI

Home | Current Version | Previous Version | Text Only | Print | Product List | Glossary On
Versions: 1 2 3 4 5 6 7 8 9 10 11 12 13 14 15 16 17 18 19 20 21
000
FTUS43 KMKX 210901 AAA
TAFMKE
TAF AMD
KMKE 210901Z 2109/2212 20009KT P6SM VCSH BKN120 WS020/20040KT
     FM211500 18012G22KT P6SM BKN250
     FM212300 17011KT P6SM SCT150 WS020/19035KT
     FM220500 18011G20KT P6SM BKN150 WS020/20040KT=

USA.gov is the U.S. government's official web portal to all federal, state and local government web resources and services.